Latest Weather Observations for Dubbo

IDN60801

Issued at 2:05 pm EST Friday 25 April 2014 (issued every 30 minutes, with the page automatically refreshed every 10 minutes)

About weather observations | Map of weather stations | Latest weather observations for NSW | Other Formats
Station Details ID: 065070 Name: DUBBO AIRPORT AWS Lat: -32.22 Lon: 148.58 Height: 284.0 m
Data from the previous 72 hours. | See also: Recent months at Dubbo
Date/Time
EST
Temp
°C
App
Temp
°C
Dew
Point
Rel
Hum
%
Delta-T
°C
Wind Press
QNH
hPa
Press
MSL
hPa
Rain
since 9 am
mm
Dir
 
Spd
km/h
Gust
km/h
Spd
kts
Gust
kts
25/02:00pm 25.9 23.5 14.4 49 6.9 E 20 28 11 15 1015.6 - 0.0
25/01:30pm 26.4 24.3 15.1 49 6.9 E 20 30 11 16 1016.0 - 0.0
25/01:00pm 26.1 24.4 14.6 49 7.0 E 17 26 9 14 1016.7 - 0.0
25/12:30pm 25.9 23.6 15.6 53 6.3 E 22 32 12 17 1017.3 - 0.0
25/12:00pm 24.8 22.0 14.3 52 6.3 E 22 35 12 19 1017.9 1017.2 0.0
25/11:30am 24.2 21.9 14.6 55 5.8 E 20 32 11 17 1018.5 - 0.0
25/11:00am 24.0 21.1 15.2 58 5.3 ENE 24 33 13 18 1018.9 - 0.0
25/10:30am 23.1 19.1 14.1 57 5.3 ENE 28 37 15 20 1019.3 - 0.0
25/10:00am 22.3 18.9 14.7 62 4.5 E 26 35 14 19 1019.5 - 0.0
25/09:30am 20.7 16.0 14.4 67 3.7 E 32 44 17 24 1019.5 - 0.0
25/09:00am 19.7 15.7 14.1 70 3.3 E 28 39 15 21 1019.7 1019.0 0.4
25/08:30am 18.9 15.9 13.7 72 3.0 E 22 32 12 17 1019.6 - 0.4
25/08:00am 17.6 14.4 13.1 75 2.6 E 22 32 12 17 1019.3 - 0.4
25/07:30am 16.4 12.9 12.2 76 2.3 E 22 32 12 17 1018.8 - 0.4
25/07:00am 15.2 11.8 11.2 77 2.2 E 20 28 11 15 1018.5 - 0.4
25/06:30am 14.3 11.6 10.3 77 2.1 ESE 15 20 8 11 1018.4 - 0.4
25/06:00am 14.6 11.4 9.8 73 2.5 ESE 17 26 9 14 1018.2 1017.5 0.4
25/05:30am 14.5 10.7 9.1 70 2.8 ESE 19 28 10 15 1017.8 - 0.4
25/05:00am 14.0 10.0 9.2 73 2.5 ESE 20 28 11 15 1017.4 - 0.4
25/04:30am 12.0 9.4 9.2 83 1.4 SE 13 17 7 9 1017.3 - 0.4
25/04:00am 12.1 9.5 9.3 83 1.4 SE 13 17 7 9 1017.1 - 0.4
25/03:30am 12.5 9.9 9.5 82 1.5 ESE 13 17 7 9 1017.1 - 0.4
25/03:00am 13.0 9.1 9.6 80 1.8 SE 20 24 11 13 1016.5 1015.7 0.4
25/02:30am 12.9 8.7 9.7 81 1.7 SSE 22 28 12 15 1016.5 - 0.4
25/02:00am 12.8 8.6 9.6 81 1.7 SSE 22 28 12 15 1016.5 - 0.4
25/01:30am 13.5 9.4 10.1 80 1.8 SSE 22 28 12 15 1016.8 - 0.4
25/01:00am 14.2 9.9 10.6 79 1.9 SSE 24 28 13 15 1016.8 - 0.4
25/12:30am 15.3 11.5 9.7 69 2.9 SSE 20 24 11 13 1017.0 - 0.0
25/12:00am 12.8 10.1 8.9 77 2.0 SSE 13 17 7 9 1017.1 1016.3 0.0
 
Date/Time
EST
Temp
°C
App
Temp
°C
Dew
Point
Rel
Hum
%
Delta-T
°C
Wind Press
QNH
hPa
Press
MSL
hPa
Rain
since 9 am
mm
Dir
 
Spd
km/h
Gust
km/h
Spd
kts
Gust
kts
24/11:30pm 13.6 10.9 8.9 73 2.4 ESE 13 15 7 8 1017.2 - 0.0
24/11:00pm 14.1 11.4 8.9 71 2.7 ESE 13 15 7 8 1017.3 - 0.0
24/10:30pm 15.2 11.3 8.7 65 3.4 SSE 19 20 10 11 1017.1 - 0.0
24/10:00pm 15.3 11.7 8.3 63 3.6 SE 17 20 9 11 1017.2 - 0.0
24/09:30pm 15.5 11.4 8.0 61 3.8 SSE 19 20 10 11 1016.8 - 0.0
24/09:00pm 16.5 12.2 8.0 57 4.4 SSE 20 24 11 13 1016.4 1015.6 0.0
24/08:30pm 16.1 11.9 7.3 56 4.4 SSE 19 20 10 11 1016.2 - 0.0
24/08:00pm 17.0 12.9 7.9 55 4.7 S 19 20 10 11 1015.7 - 0.0
24/07:30pm 16.5 12.6 7.2 54 4.7 SSE 17 19 9 10 1015.4 - 0.0
24/07:00pm 19.1 15.7 7.5 47 6.0 S 15 19 8 10 1015.2 - 0.0
24/06:30pm 17.0 14.1 8.2 56 4.5 S 13 15 7 8 1014.8 - 0.0
24/06:00pm 17.7 14.8 8.0 53 5.0 SSE 13 15 7 8 1014.6 1013.9 0.0
24/05:30pm 20.9 18.3 7.9 43 6.8 S 11 13 6 7 1014.2 - 0.0
24/05:00pm 23.7 20.8 8.2 37 8.3 S 13 15 7 8 1013.9 - 0.0
24/04:30pm 26.6 24.2 7.1 29 10.4 SW 9 13 5 7 1013.7 - 0.0
24/04:00pm 27.5 24.8 7.4 28 10.9 WSW 11 17 6 9 1013.7 - 0.0
24/03:30pm 27.8 24.8 6.0 25 11.5 WSW 11 19 6 10 1013.7 - 0.0
24/03:00pm 28.1 25.1 7.9 28 11.1 W 13 17 7 9 1013.8 1013.0 0.0
24/02:30pm 28.2 25.5 9.0 30 10.7 WSW 13 17 7 9 1013.9 - 0.0
24/02:00pm 27.8 24.9 8.1 29 10.8 W 13 22 7 12 1014.1 - 0.0
24/01:30pm 27.6 25.2 8.5 30 10.5 W 11 22 6 12 1014.4 - 0.0
24/01:00pm 26.5 24.5 10.2 36 9.2 NNW 11 17 6 9 1014.6 - 0.0
24/12:30pm 26.0 24.6 11.0 39 8.6 NNW 9 15 5 8 1015.0 - 0.0
24/12:00pm 24.9 24.8 12.2 45 7.4 W 4 7 2 4 1015.4 1014.7 0.0
24/11:30am 24.1 24.0 12.1 47 6.9 NNE 4 7 2 4 1015.8 - 0.0
24/11:00am 21.4 20.2 11.7 54 5.5 SSE 9 13 5 7 1016.2 - 0.0
24/10:30am 19.6 18.2 10.9 57 4.8 SE 9 13 5 7 1016.6 - 0.0
24/10:00am 18.1 16.7 9.7 58 4.5 SE 7 11 4 6 1016.8 - 0.0
24/09:30am 16.5 14.3 9.2 62 3.8 SSE 11 13 6 7 1016.9 - 0.0
24/09:00am 14.8 11.7 8.7 67 3.1 SE 15 19 8 10 1016.7 1015.9 0.0
24/08:30am 13.5 10.7 8.6 72 2.5 S 13 19 7 10 1016.6 - 0.0
24/08:00am 12.1 10.1 8.6 79 1.8 SE 9 13 5 7 1015.9 - 0.0
24/07:30am 9.0 6.2 7.1 88 0.9 SSE 11 15 6 8 1015.7 - 0.0
24/07:00am 7.6 4.3 6.4 92 0.6 SSE 13 15 7 8 1015.6 - 0.0
24/06:30am 6.7 4.0 5.8 94 0.4 SE 9 15 5 8 1015.5 - 0.0
24/06:00am 6.9 3.8 5.5 91 0.6 SE 11 15 6 8 1015.3 1014.6 0.0
24/05:30am 6.9 3.5 5.8 93 0.5 SSE 13 15 7 8 1015.1 - 0.0
24/05:00am 7.3 4.0 6.4 94 0.4 SSE 13 15 7 8 1014.9 - 0.0
24/04:30am 6.7 3.3 5.7 93 0.5 SSE 13 15 7 8 1015.0 - 0.0
24/04:00am 7.4 3.6 6.0 91 0.6 SSE 15 15 8 8 1015.0 - 0.0
24/03:30am 7.9 3.8 6.2 89 0.8 SSE 17 19 9 10 1014.9 - 0.0
24/03:00am 8.5 4.1 6.6 88 0.9 SSE 19 20 10 11 1015.1 1014.4 0.0
24/02:30am 8.4 4.0 6.5 88 0.9 SSE 19 20 10 11 1015.3 - 0.0
24/02:00am 8.5 4.9 6.8 89 0.8 SSE 15 20 8 11 1015.6 - 0.0
24/01:30am 8.2 4.9 6.5 89 0.8 SSE 13 17 7 9 1015.8 - 0.0
24/01:00am 9.5 6.0 7.4 87 1.0 SSE 15 20 8 11 1015.9 - 0.0
24/12:30am 8.5 4.9 6.8 89 0.8 SSE 15 15 8 8 1016.0 - 0.0
24/12:00am 9.5 6.0 7.1 85 1.1 SSE 15 17 8 9 1016.0 1015.3 0.0
 
Date/Time
EST
Temp
°C
App
Temp
°C
Dew
Point
Rel
Hum
%
Delta-T
°C
Wind Press
QNH
hPa
Press
MSL
hPa
Rain
since 9 am
mm
Dir
 
Spd
km/h
Gust
km/h
Spd
kts
Gust
kts
23/11:30pm 9.4 5.8 6.8 84 1.2 SSE 15 17 8 9 1016.0 - 0.0
23/11:00pm 9.4 6.4 7.5 88 0.9 SSE 13 17 7 9 1016.3 - 0.0
23/10:30pm 8.2 5.3 6.3 88 0.9 ESE 11 13 6 7 1016.4 - 0.0
23/10:00pm 9.5 6.1 6.0 79 1.6 SE 13 19 7 10 1016.4 - 0.0
23/09:30pm 10.4 8.3 6.5 77 1.9 S 7 11 4 6 1016.4 - 0.0
23/09:00pm 10.3 7.7 6.3 76 1.9 SE 9 11 5 6 1016.5 1015.7 0.0
23/08:30pm 10.9 8.6 5.7 70 2.4 ESE 7 9 4 5 1016.7 - 0.0
23/08:00pm 12.6 10.4 5.5 62 3.4 ESE 6 7 3 4 1016.6 - 0.0
23/07:30pm 12.2 9.2 5.8 65 3.0 SE 11 11 6 6 1016.5 - 0.0
23/07:00pm 13.0 10.0 6.1 63 3.3 SE 11 11 6 6 1016.5 - 0.0
23/06:30pm 14.4 11.3 5.5 55 4.3 ESE 11 11 6 6 1016.4 - 0.0
23/06:00pm 13.9 11.1 5.3 56 4.1 SE 9 11 5 6 1016.3 1015.5 0.0
23/05:30pm 17.7 14.9 5.3 44 6.1 SE 9 9 5 5 1016.0 - 0.0
23/05:00pm 21.4 18.9 6.5 38 7.7 SE 9 9 5 5 1016.0 - 0.0
23/04:30pm 23.4 21.0 5.3 31 9.2 SE 7 9 4 5 1015.9 - 0.0
23/04:00pm 23.8 20.8 2.0 24 10.5 SE 7 11 4 6 1015.9 - 0.0
23/03:30pm 24.7 22.2 3.9 26 10.4 E 6 9 3 5 1016.0 - 0.0
23/03:00pm 24.0 21.9 3.9 27 10.0 S 4 13 2 7 1016.0 1015.3 0.0
23/02:30pm 24.2 21.9 5.5 30 9.6 S 7 11 4 6 1016.0 - 0.0
23/02:00pm 24.1 22.3 7.3 34 8.9 ESE 6 11 3 6 1016.2 - 0.0
23/01:30pm 23.7 21.6 6.0 32 9.1 W 6 13 3 7 1016.6 - 0.0
23/01:00pm 23.0 20.7 5.9 33 8.8 SW 7 11 4 6 1017.0 - 0.0
23/12:30pm 22.7 21.1 8.0 39 7.8 E 6 9 3 5 1017.5 - 0.0
23/12:00pm 21.4 19.8 8.7 44 6.8 SSE 7 9 4 5 1017.8 1017.1 0.0
23/11:30am 20.4 19.1 11.1 55 5.2 SSE 9 13 5 7 1018.2 - 0.0
23/11:00am 18.6 16.6 10.2 58 4.6 SE 11 13 6 7 1018.6 - 0.0
23/10:30am 17.4 15.4 10.1 62 3.9 SSE 11 17 6 9 1018.9 - 0.0
23/10:00am 15.9 13.2 9.1 64 3.6 SE 13 15 7 8 1019.1 - 0.0
23/09:30am 15.3 13.2 9.7 69 2.9 SSE 11 15 6 8 1019.1 - 0.0
23/09:00am 13.3 11.1 9.4 77 2.0 SSE 11 15 6 8 1019.3 1018.6 0.0
23/08:30am 11.2 8.7 8.4 83 1.4 SE 11 15 6 8 1019.2 - 0.0
23/08:00am 9.6 6.4 8.4 92 0.6 SSE 15 20 8 11 1019.1 - 0.0
23/07:30am 7.6 3.3 7.2 97 0.2 SSE 19 22 10 12 1018.9 - 0.0
23/07:00am 6.4 1.9 6.3 99 0.0 SSE 19 22 10 12 1018.9 - 0.0
23/06:30am 5.7 2.5 5.3 97 0.2 SE 11 17 6 9 1018.7 - 0.0
23/06:00am 6.7 3.0 6.3 97 0.2 SSE 15 22 8 12 1018.3 1017.6 0.0
23/05:30am 6.9 2.9 6.8 99 0.0 SSE 17 20 9 11 1018.0 - 0.0
23/05:00am 6.4 3.5 6.4 100 0.0 SSE 11 15 6 8 1018.0 - 0.0
23/04:30am 5.5 2.8 5.4 99 0.0 SE 9 13 5 7 1017.9 - 0.0
23/04:00am 5.4 2.2 5.1 98 0.1 SE 11 13 6 7 1017.9 - 0.0
23/03:30am 6.1 3.0 5.7 97 0.2 SSE 11 15 6 8 1018.0 - 0.0
23/03:00am 6.2 4.8 5.5 95 0.3 SSE 2 9 1 5 1017.9 1017.2 0.0
23/02:30am 7.0 4.8 6.3 95 0.3 SE 7 11 4 6 1018.0 - 0.0
23/02:00am 7.4 3.8 6.8 96 0.3 SSE 15 17 8 9 1018.0 - 0.0
23/01:30am 7.3 4.3 6.2 93 0.5 SSE 11 13 6 7 1018.3 - 0.0
23/01:00am 8.4 5.0 7.5 94 0.4 S 15 17 8 9 1018.5 - 0.0
23/12:30am 8.1 5.7 6.9 92 0.6 SSE 9 13 5 7 1018.5 - 0.0
23/12:00am 7.9 4.6 6.4 90 0.7 SSE 13 15 7 8 1018.5 1017.8 0.0
 
Date/Time
EST
Temp
°C
App
Temp
°C
Dew
Point
Rel
Hum
%
Delta-T
°C
Wind Press
QNH
hPa
Press
MSL
hPa
Rain
since 9 am
mm
Dir
 
Spd
km/h
Gust
km/h
Spd
kts
Gust
kts
22/11:30pm 9.8 8.0 7.9 88 0.9 ESE 7 7 4 4 1018.6 - 0.0
22/11:00pm 9.7 7.8 7.5 86 1.1 SE 7 9 4 5 1018.8 - 0.0
22/10:30pm 9.0 6.6 6.8 86 1.0 SE 9 11 5 6 1018.9 - 0.0
22/10:07pm 9.8 7.0 7.1 83 1.3 E 11 13 6 7 1018.7 - 0.0
22/10:00pm 9.8 6.5 6.3 79 1.7 E 13 15 7 8 1018.7 - 0.0
22/09:57pm 10.0 6.7 6.5 79 1.7 ESE 13 17 7 9 1018.7 - 0.0
22/09:30pm 13.6 9.9 8.0 69 2.8 S 17 20 9 11 1018.7 - 0.0
22/09:00pm 12.5 8.7 7.6 72 2.4 SSE 17 20 9 11 1019.0 1018.3 0.0
22/08:30pm 13.6 9.5 7.8 68 2.9 SSE 19 20 10 11 1018.8 - 0.0
22/08:00pm 14.7 11.1 8.4 66 3.2 S 17 19 9 10 1018.8 - 0.0
22/07:30pm 12.8 9.6 8.5 75 2.2 SSE 15 17 8 9 1018.6 - 0.0
22/07:00pm 13.8 10.5 8.0 68 2.9 S 15 17 8 9 1018.5 - 0.0
22/06:30pm 13.6 10.3 8.0 69 2.8 SSE 15 15 8 8 1018.3 - 0.0
22/06:00pm 13.9 10.8 7.4 65 3.2 SSE 13 15 7 8 1018.0 1017.3 0.0
22/05:30pm 16.3 14.0 7.3 55 4.5 SSW 9 11 5 6 1017.7 - 0.0
22/05:00pm 20.1 17.9 7.8 45 6.4 SSW 9 11 5 6 1017.5 - 0.0
22/04:30pm 22.2 20.0 6.0 35 8.3 SSW 7 11 4 6 1017.4 - 0.0
22/04:00pm 23.1 19.8 6.4 34 8.7 W 13 20 7 11 1017.6 - 0.0
22/03:30pm 23.6 19.8 6.0 32 9.1 WNW 15 20 8 11 1017.6 - 0.0
22/03:00pm 23.9 19.5 6.7 33 9.0 WNW 19 24 10 13 1017.7 1017.0 0.0
22/02:30pm 23.1 20.1 7.6 37 8.2 WSW 13 20 7 11 1017.9 - 0.0

Other Formats:

Comma delimited format used in spreadsheet applications
http://www.bom.gov.au/fwo/IDN60801/IDN60801.95719.axf

JavaScript Object Notation format (JSON) in row-major order
http://www.bom.gov.au/fwo/IDN60801/IDN60801.95719.json